createdAt,value
2018-12-13T00:03:24.322Z,17.80
2018-12-13T00:08:31.508Z,14.30
2018-12-13T00:13:37.133Z,13.37
2018-12-13T00:18:42.573Z,13.77
2018-12-13T00:23:47.968Z,16.03
2018-12-13T00:28:53.342Z,16.93
2018-12-13T00:33:58.593Z,16.60
2018-12-13T00:39:05.756Z,18.13
2018-12-13T00:44:11.137Z,14.23
2018-12-13T00:49:16.474Z,14.07
2018-12-13T00:54:22.702Z,11.53
2018-12-13T00:59:28.327Z,15.27
2018-12-13T01:04:33.639Z,18.07
2018-12-13T01:09:39.365Z,16.03
2018-12-13T01:14:44.674Z,16.47
2018-12-13T01:19:49.990Z,17.47
2018-12-13T01:24:55.246Z,15.67
2018-12-13T01:30:00.760Z,13.17
2018-12-13T01:35:07.017Z,15.87
2018-12-13T01:40:12.486Z,17.60
2018-12-13T01:45:17.977Z,14.13
2018-12-13T01:50:23.430Z,14.67
2018-12-13T01:55:28.763Z,19.17
2018-12-13T02:00:34.181Z,16.80
2018-12-13T02:05:39.950Z,21.07
2018-12-13T02:10:45.406Z,19.07
2018-12-13T02:15:50.691Z,18.17
2018-12-13T02:20:56.137Z,21.37
2018-12-13T02:26:01.535Z,17.50
2018-12-13T02:31:07.090Z,16.13
2018-12-13T02:36:12.486Z,17.93
2018-12-13T02:41:17.861Z,22.30
2018-12-13T02:46:23.861Z,16.00
2018-12-13T02:51:29.192Z,16.13
2018-12-13T02:56:35.375Z,16.50
2018-12-13T03:01:40.650Z,14.60
2018-12-13T03:06:46.931Z,13.30
2018-12-13T03:11:52.260Z,12.87
2018-12-13T03:16:57.526Z,15.00
2018-12-13T03:22:03.123Z,13.50
2018-12-13T03:27:08.775Z,13.13
2018-12-13T03:32:14.565Z,15.83
2018-12-13T03:37:20.803Z,16.33
2018-12-13T03:42:26.854Z,13.73
2018-12-13T03:47:32.200Z,17.00
2018-12-13T03:52:37.500Z,21.67
2018-12-13T03:57:42.879Z,14.90
2018-12-13T04:02:48.160Z,18.03
2018-12-13T04:07:53.867Z,17.90
2018-12-13T04:13:00.206Z,15.37
2018-12-13T04:18:05.692Z,17.63
2018-12-13T04:23:12.966Z,22.80
2018-12-13T04:28:18.304Z,13.67
2018-12-13T04:33:24.177Z,15.07
2018-12-13T04:38:29.399Z,14.47
2018-12-13T04:43:34.694Z,16.10
2018-12-13T04:48:40.139Z,17.93
2018-12-13T04:53:45.453Z,18.47
2018-12-13T04:58:50.956Z,18.10
2018-12-13T05:03:56.317Z,25.43
2018-12-13T05:09:01.789Z,18.90
2018-12-13T05:14:07.156Z,20.70
2018-12-13T05:19:12.493Z,15.60
2018-12-13T05:24:18.104Z,19.73
2018-12-13T05:29:23.681Z,15.70
2018-12-13T05:34:28.991Z,22.80
2018-12-13T05:39:34.309Z,19.37
2018-12-13T05:44:39.791Z,20.67
2018-12-13T05:49:45.256Z,17.83
2018-12-13T05:54:50.611Z,17.67
2018-12-13T05:59:56.129Z,17.53
2018-12-13T06:05:01.615Z,17.50
2018-12-13T06:10:08.135Z,18.50
2018-12-13T06:15:13.523Z,25.53
2018-12-13T06:20:19.168Z,16.00
2018-12-13T06:25:24.336Z,32.07
2018-12-13T06:30:29.805Z,27.43
2018-12-13T06:35:35.091Z,23.40
2018-12-13T06:40:40.489Z,17.20
2018-12-13T06:45:46.032Z,16.13
2018-12-13T06:50:51.397Z,22.37
2018-12-13T06:55:57.075Z,22.93
2018-12-13T07:01:02.416Z,21.73
2018-12-13T07:06:07.679Z,22.33
2018-12-13T07:11:13.043Z,20.50
2018-12-13T07:16:18.386Z,34.60
2018-12-13T07:21:23.765Z,22.40
2018-12-13T07:26:29.203Z,22.53
2018-12-13T07:31:35.294Z,23.87
2018-12-13T07:36:40.632Z,26.80
2018-12-13T07:41:46.166Z,23.77
2018-12-13T07:46:53.243Z,20.87
2018-12-13T07:51:59.014Z,23.27
2018-12-13T07:57:04.531Z,21.47
2018-12-13T08:02:10.363Z,24.63
2018-12-13T08:07:15.821Z,18.20
2018-12-13T08:12:21.295Z,18.23
2018-12-13T08:28:33.398Z,19.77
2018-12-13T08:33:38.787Z,24.90
2018-12-13T08:38:44.395Z,18.90
2018-12-13T08:43:49.718Z,19.67
2018-12-13T08:48:55.030Z,21.37
2018-12-13T08:54:00.904Z,19.73
2018-12-13T08:59:06.746Z,20.47
2018-12-13T09:04:11.982Z,26.93
2018-12-13T09:09:17.236Z,22.30
2018-12-13T09:14:22.400Z,21.03
2018-12-13T09:19:27.739Z,23.20
2018-12-13T09:24:32.958Z,26.83
2018-12-13T09:29:38.231Z,26.43
2018-12-13T09:34:43.811Z,23.20
2018-12-13T09:39:49.216Z,27.70
2018-12-13T09:44:54.909Z,24.63
2018-12-13T09:50:00.091Z,27.80
2018-12-13T09:55:06.263Z,24.27
2018-12-13T10:00:13.039Z,22.23
2018-12-13T10:05:19.336Z,31.10
2018-12-13T10:10:25.062Z,30.30
2018-12-13T10:15:32.227Z,30.27
2018-12-13T10:20:37.581Z,28.93
2018-12-13T10:25:42.879Z,25.70
2018-12-13T10:30:48.417Z,28.17
2018-12-13T10:35:53.779Z,34.07
2018-12-13T10:40:59.159Z,31.20
2018-12-13T10:46:06.358Z,25.43
2018-12-13T10:51:11.682Z,33.10
2018-12-13T10:56:17.106Z,31.03
2018-12-13T11:01:27.900Z,31.17
2018-12-13T11:06:33.512Z,28.27
2018-12-13T11:11:38.729Z,33.77
2018-12-13T11:16:45.349Z,30.67
2018-12-13T11:21:50.460Z,29.70
2018-12-13T11:27:02.284Z,30.43
2018-12-13T11:32:07.863Z,27.33
2018-12-13T11:37:13.219Z,29.10
2018-12-13T11:42:18.619Z,29.40
2018-12-13T11:47:25.052Z,26.70
2018-12-13T11:52:30.367Z,33.30
2018-12-13T11:57:35.832Z,37.93
2018-12-13T12:02:41.205Z,27.50
2018-12-13T12:07:47.035Z,35.97
2018-12-13T12:12:52.422Z,30.63
2018-12-13T12:17:57.855Z,25.73
2018-12-13T12:23:03.091Z,29.77
2018-12-13T12:28:08.538Z,27.37
2018-12-13T12:33:13.959Z,21.00
2018-12-13T12:38:19.671Z,25.97
2018-12-13T12:43:25.099Z,23.70
2018-12-13T12:48:34.208Z,23.03
2018-12-13T12:53:41.236Z,23.53
2018-12-13T12:58:46.457Z,25.00
2018-12-13T13:03:51.736Z,24.37
2018-12-13T13:08:57.133Z,34.33
2018-12-13T13:14:02.540Z,35.60
2018-12-13T13:19:08.601Z,38.57
2018-12-13T13:24:14.019Z,33.97
2018-12-13T13:29:19.674Z,29.53
2018-12-13T13:34:25.482Z,43.63
2018-12-13T13:39:31.579Z,26.93
2018-12-13T13:44:39.254Z,25.70
2018-12-13T13:49:44.874Z,40.30
2018-12-13T13:54:50.346Z,32.13
2018-12-13T13:59:55.596Z,49.37
2018-12-13T14:05:01.591Z,32.90
2018-12-13T14:10:08.319Z,32.20
2018-12-13T14:15:13.499Z,29.43
2018-12-13T14:20:18.760Z,29.23
2018-12-13T14:25:24.437Z,33.70
2018-12-13T14:30:30.396Z,32.13
2018-12-13T14:35:35.802Z,20.80
2018-12-13T14:40:41.474Z,22.97
2018-12-13T14:45:48.592Z,18.90
2018-12-13T14:50:54.168Z,17.73
2018-12-13T14:55:59.980Z,20.83
2018-12-13T15:01:06.467Z,16.40
2018-12-13T15:06:12.218Z,16.47
2018-12-13T15:11:18.115Z,17.30
2018-12-13T15:16:23.848Z,21.23
2018-12-13T15:21:29.168Z,20.63
2018-12-13T15:26:36.166Z,38.73
2018-12-13T15:31:42.238Z,21.80
2018-12-13T15:36:48.410Z,26.43
2018-12-13T15:41:54.864Z,27.60
2018-12-13T15:47:00.709Z,35.17
2018-12-13T15:52:06.531Z,28.00
2018-12-13T15:57:11.714Z,31.93
2018-12-13T16:02:17.440Z,20.43
2018-12-13T16:07:23.287Z,27.00
2018-12-13T16:12:28.568Z,38.10
2018-12-13T16:17:34.491Z,35.23
2018-12-13T16:22:39.752Z,37.57
2018-12-13T16:27:45.095Z,24.60
2018-12-13T16:32:50.428Z,28.87
2018-12-13T16:37:56.157Z,23.30
2018-12-13T16:43:01.474Z,26.93
2018-12-13T16:48:07.338Z,21.57
2018-12-13T16:53:12.738Z,21.40
2018-12-13T16:58:17.982Z,21.67
2018-12-13T17:03:37.168Z,24.40
2018-12-13T17:08:42.570Z,24.60
2018-12-13T17:13:48.478Z,50.30
2018-12-13T17:18:53.776Z,41.53
2018-12-13T17:23:59.985Z,26.53
2018-12-13T17:29:05.909Z,28.30
2018-12-13T17:34:13.363Z,28.50
2018-12-13T17:39:18.727Z,29.13
2018-12-13T17:44:24.129Z,28.67
2018-12-13T17:49:29.777Z,24.70
2018-12-13T17:54:36.185Z,25.53
2018-12-13T17:59:42.550Z,36.10
2018-12-13T18:04:48.540Z,40.67
2018-12-13T18:09:53.798Z,29.53
2018-12-13T18:14:59.255Z,32.70
2018-12-13T18:20:06.205Z,32.77
2018-12-13T18:25:11.975Z,31.77
2018-12-13T18:30:18.153Z,40.33
2018-12-13T18:35:23.410Z,34.53
2018-12-13T18:40:35.418Z,38.63
2018-12-13T18:45:36.971Z,33.47
2018-12-13T18:50:42.270Z,41.80
2018-12-13T18:55:47.759Z,36.70
2018-12-13T19:00:53.222Z,35.47
2018-12-13T19:05:58.447Z,43.03
2018-12-13T19:11:05.202Z,39.93
2018-12-13T19:16:10.911Z,31.87
2018-12-13T19:21:16.639Z,31.17
2018-12-13T19:26:22.318Z,34.77
2018-12-13T19:31:27.878Z,30.50
2018-12-13T19:36:34.613Z,28.27
2018-12-13T19:41:40.089Z,25.00
2018-12-13T19:46:45.392Z,26.63
2018-12-13T19:51:50.789Z,36.73
2018-12-13T19:56:56.026Z,32.43
2018-12-13T20:02:03.671Z,32.83
2018-12-13T20:07:10.594Z,28.40
2018-12-13T20:12:19.121Z,28.33
2018-12-13T20:17:25.148Z,30.50
2018-12-13T20:22:31.984Z,21.77
2018-12-13T20:27:40.371Z,27.23
2018-12-13T20:32:46.700Z,22.60
2018-12-13T20:37:53.800Z,29.93
2018-12-13T20:42:59.264Z,21.07
2018-12-13T20:48:04.684Z,21.43
2018-12-13T20:53:10.680Z,19.33
2018-12-13T20:58:16.187Z,16.20
2018-12-13T21:03:21.728Z,16.07
2018-12-13T21:08:27.113Z,12.83
2018-12-13T21:13:32.958Z,14.03
2018-12-13T21:18:38.821Z,12.50
2018-12-13T21:23:44.719Z,11.63
2018-12-13T21:28:50.154Z,11.83
2018-12-13T21:33:55.537Z,14.93
2018-12-13T21:39:01.298Z,15.43
2018-12-13T21:44:07.404Z,13.80
2018-12-13T21:49:13.018Z,11.53
2018-12-13T21:54:18.465Z,13.57
2018-12-13T21:59:24.889Z,14.43
2018-12-13T22:04:30.788Z,9.87
2018-12-13T22:09:37.071Z,11.63
2018-12-13T22:14:42.619Z,10.57
2018-12-13T22:19:47.930Z,7.30
2018-12-13T22:24:53.509Z,12.87
2018-12-13T22:29:58.923Z,8.57
2018-12-13T22:35:05.756Z,12.37
2018-12-13T22:40:11.517Z,12.20
2018-12-13T22:45:17.070Z,8.20
2018-12-13T22:50:22.357Z,9.53
2018-12-13T22:55:28.363Z,16.07
2018-12-13T23:00:33.856Z,10.57
2018-12-13T23:05:41.268Z,11.10
2018-12-13T23:10:46.544Z,9.37
2018-12-13T23:15:52.031Z,10.37
2018-12-13T23:20:57.737Z,10.13
2018-12-13T23:26:03.630Z,12.83
2018-12-13T23:31:09.456Z,11.10
2018-12-13T23:36:15.198Z,10.43
2018-12-13T23:41:20.929Z,10.80
2018-12-13T23:46:26.462Z,11.90
2018-12-13T23:51:31.928Z,10.57
2018-12-13T23:56:37.954Z,13.80
